KHWD

Hayward Executive Airport

Hayward, California, USA
METAR KHWD 150254Z 28011KT 10SM OVC012 18/13 A2991 RMK AO2 SLP137 T01780133 55002
Observed Flight Rules
Aug-15 @ 02:54 UTC (42 minutes ago) Marginal Visual Flight Rules
Wind Visibility Clouds
280° at 11 knots 10 miles
  • Overcast at 1,200' AGL
Temperatures Readings
Current 18°C / 64°F
Dewpoint 13°C / 55°F
Humidity 73%
Altimeter 29.91" Hg
Pressure 1013.7 hPa
Elevation 21
METAR KHWD 150254Z 28011KT 10SM OVC012 18/13 A2991 RMK AO2 SLP137 T01780133 55002
Observed Flight Rules
Aug-15 @ 02:54 UTC
(42 minutes ago)
MVFR
Wind Visibility
280° at 11 knots 10 miles
Clouds
  • Overcast at 1,200' AGL
Temperature Dewpoint
18°C / 64°F 13°C / 55°F
Humidity Altimeter Pressure
73% 29.91" Hg 1013.7 hPa